Nearby METAR Reports

 

KEQY - Monroe, North Carolina, USA
Distance from station: S 11mi, 18km
Updated: Tue, 03/31/2015 11:53am EDT
Clear
Clear
 Wind from SSW
Wind: SSW 9 mph , 15 km/h
Temperature: 66°F , 19°C
Dew Point: 32°F , 0°C
Humidity: 28%
Barometer: 30.01 inHg , 1016.3 hPa
Clouds: Clear
Visibility: 10 miles , 16 km
2015/03/31 15:53 KEQY 311553Z AUTO 21008KT 10SM CLR 19/00 A3001 RMK AO2 SLP169 T01940000
KJQF - Concord Reg Arpt, North Carolina, USA
Distance from station: NNW 16mi, 25km
Updated: Tue, 03/31/2015 11:50am EDT
Clear
Clear
 Wind from SW
Wind: SW 10 mph , 17 km/h, Gust: 17 mph , 28 km/h
Temperature: 66°F , 19°C
Dew Point: 28°F , -2°C
Humidity: 24%
Barometer: 30.03 inHg , 1016.9 hPa
Clouds: Clear
Visibility: 10 miles , 16 km
2015/03/31 15:50 KJQF 311550Z 22009G15KT 10SM CLR 19/M02 A3003
 
KCLT - Charlotte, North Carolina, USA
Distance from station: W 20mi, 33km
Updated: Tue, 03/31/2015 11:52am EDT
Few Clouds
Few Clouds
 Wind from S
Wind: S 9 mph , 15 km/h
Temperature: 68°F , 20°C
Dew Point: 27°F , -3°C
Humidity: 21%
Barometer: 30.02 inHg , 1016.6 hPa
Clouds: Few Clouds
Visibility: 10 miles , 16 km
Cloud details: Few Clouds 25000 ft
2015/03/31 15:52 KCLT 311552Z 19008KT 10SM FEW250 20/M03 A3002 RMK AO2 SLP160 T02001033 PNO CHINO RWY 36 $
KUZA - Rock Hill, South Carolina, USA
Distance from station: WSW 29mi, 47km
Updated: Tue, 03/31/2015 11:54am EDT
Clear
Clear
 Wind from WSW
Wind: WSW 10 mph , 17 km/h, Gust: 20 mph , 31 km/h
Temperature: 66°F , 19°C
Dew Point: 34°F , 1°C
Humidity: 30%
Barometer: 30.02 inHg , 1016.6 hPa
Clouds: Clear
Visibility: 10 miles , 16 km
2015/03/31 15:54 KUZA 311554Z AUTO 24009G17KT 10SM CLR 19/01 A3002 RMK AO2 SLP163 T01940006
 
KVUJ - Albemarle Stanly, North Carolina, USA
Distance from station: NE 30mi, 48km
Updated: Tue, 03/31/2015 12:35pm EDT
Clear
Clear
 Wind from SSW
Wind: SSW 10 mph , 17 km/h, Gust: 17 mph , 28 km/h
Temperature: 68°F , 20°C
Dew Point: 36°F , 2°C
Humidity: 30%
Barometer: 30.01 inHg , 1016.3 hPa
Clouds: Clear
Visibility: 10 miles , 16 km
2015/03/31 16:35 KVUJ 311635Z AUTO 21009G15KT 10SM CLR 20/02 A3001 RMK AO2 T02020023
KAFP - Wadesboro/Anson, North Carolina, USA
Distance from station: ESE 31mi, 50km
Updated: Tue, 03/31/2015 12:35pm EDT
Clear
Clear
 Wind from S
Wind: S 7 mph , 11 km/h, Gust: 17 mph , 28 km/h
Temperature: 70°F , 21°C
Dew Point: 28°F , -2°C
Humidity: 21%
Barometer: 29.98 inHg , 1015.2 hPa
Clouds: Clear
Visibility: 10 miles , 16 km
2015/03/31 16:35 KAFP 311635Z AUTO 19006G15KT 10SM CLR 21/M02 A2998 RMK AO2 T02061019
 
KAKH - Gastonia, North Carolina, USA
Distance from station: W 31mi, 51km
Updated: Tue, 03/31/2015 11:54am EDT
Clear
Clear
 Wind from SSW
Wind: SSW 10 mph , 17 km/h, Gust: 17 mph , 28 km/h
Temperature: 66°F , 19°C
Dew Point: 30°F , -1°C
Humidity: 26%
Barometer: 30.00 inHg , 1015.9 hPa
Clouds: Clear
Visibility: 10 miles , 16 km
2015/03/31 15:54 KAKH 311554Z AUTO 21009G15KT 10SM CLR 19/M01 A3000 RMK AO2 SLP159 T01941011
KRUQ - Salisbury Rowan, North Carolina, USA
Distance from station: N 33mi, 53km
Updated: Tue, 03/31/2015 12:35pm EDT
Clear
Clear
 Wind from SW
Wind: SW 7 mph , 11 km/h, Gust: 22 mph , 35 km/h
Temperature: 68°F , 20°C
Dew Point: 32°F , 0°C
Humidity: 26%
Barometer: 29.96 inHg , 1014.6 hPa
Clouds: Clear
Visibility: 10 miles , 16 km
2015/03/31 16:35 KRUQ 311635Z AUTO 23006G19KT 10SM CLR 20/00 A2996 RMK AO2 T01961005
 
KLKR - Lancaster, South Carolina, USA
Distance from station: SSW 35mi, 57km
Updated: Tue, 03/31/2015 12:35pm EDT
Clear
Clear
 Wind from S
Wind: S 10 mph , 17 km/h
Temperature: 68°F , 20°C
Dew Point: 32°F , 0°C
Humidity: 26%
Barometer: 30.01 inHg , 1016.3 hPa
Clouds: Clear
Visibility: 10 miles , 16 km
2015/03/31 16:35 KLKR 311635Z AUTO 18009KT 10SM CLR 20/00 A3001 RMK AO2
KIPJ - Lincolnton, North Carolina, USA
Distance from station: WNW 39mi, 62km
Updated: Tue, 03/31/2015 12:35pm EDT
Clear
Clear
 Wind from SW
Wind: SW 15 mph , 24 km/h, Gust: 18 mph , 30 km/h
Temperature: 68°F , 20°C
Dew Point: 27°F , -3°C
Humidity: 21%
Barometer: 29.98 inHg , 1015.2 hPa
Clouds: Clear
Visibility: 10 miles , 16 km
2015/03/31 16:35 KIPJ 311635Z AUTO 23013G16KT 10SM CLR 20/M03 A2998 RMK AO2 T02021028
 
KDCM - Chester Catawba, South Carolina, USA
Distance from station: SW 44mi, 71km
Updated: Tue, 03/31/2015 12:55pm EDT
Clear
Clear
 Wind from SSW
Wind: SSW 5 mph , 7 km/h, Gust: 16 mph , 26 km/h
Temperature: 72°F , 22°C
Dew Point: 25°F , -4°C
Humidity: 17%
Barometer: 30.01 inHg , 1016.3 hPa
Clouds: Clear
Visibility: 10 miles , 16 km
2015/03/31 16:55 KDCM 311655Z AUTO 20004G14KT 10SM CLR 22/M04 A3001 RMK AO2
KSVH - Statesville, North Carolina, USA
Distance from station: NNW 44mi, 71km
Updated: Tue, 03/31/2015 12:35pm EDT
Clear
Clear
 Wind from SW
Wind: SW 15 mph , 24 km/h, Gust: 23 mph , 37 km/h
Temperature: 66°F , 19°C
Dew Point: 32°F , 0°C
Humidity: 28%
Barometer: 29.95 inHg , 1014.2 hPa
Clouds: Clear
Visibility: 10 miles , 16 km
2015/03/31 16:35 KSVH 311635Z AUTO 23013G20KT 200V260 10SM CLR 19/00 A2995 RMK AO2 T01891005
 
KEXX - Davidson Cty Ap, North Carolina, USA
Distance from station: NNE 45mi, 72km
Updated: Tue, 03/31/2015 12:35pm EDT
Clear
Clear
 Wind from SSW
Wind: SSW 9 mph , 15 km/h, Gust: 17 mph , 28 km/h
Temperature: 68°F , 20°C
Dew Point: 30°F , -1°C
Humidity: 24%
Barometer: 29.95 inHg , 1014.2 hPa
Clouds: Clear
Visibility: 10 miles , 16 km
2015/03/31 16:35 KEXX 311635Z AUTO 21008G15KT 180V260 10SM CLR 20/M01 A2995 RMK AO2 T01971007
KCQW - Cheraw, South Carolina, USA
Distance from station: SE 49mi, 78km
Updated: Tue, 03/31/2015 12:35pm EDT
Clear
Clear
 Wind from S
Wind: S 10 mph , 17 km/h
Temperature: 68°F , 20°C
Dew Point: 28°F , -2°C
Humidity: 23%
Barometer: 30.00 inHg , 1015.9 hPa
Clouds: Clear
Visibility: 10 miles , 16 km
2015/03/31 16:35 KCQW 311635Z AUTO 19009KT 10SM CLR 20/M02 A3000 RMK AO2